createdAt,value
2019-04-04T00:02:08.813Z,8.40
2019-04-04T00:04:38.835Z,8.30
2019-04-04T00:07:08.941Z,8.10
2019-04-04T00:09:39.087Z,8.10
2019-04-04T00:12:09.275Z,8.00
2019-04-04T00:14:39.466Z,7.90
2019-04-04T00:17:09.583Z,7.90
2019-04-04T00:19:39.736Z,7.90
2019-04-04T00:22:09.894Z,7.90
2019-04-04T00:24:40.019Z,7.90
2019-04-04T00:27:11.209Z,7.80
2019-04-04T00:29:42.481Z,7.80
2019-04-04T00:32:12.648Z,7.40
2019-04-04T00:34:43.228Z,7.60
2019-04-04T00:37:13.333Z,7.50
2019-04-04T00:39:43.485Z,7.40
2019-04-04T00:42:16.688Z,7.40
2019-04-04T00:44:45.679Z,7.50
2019-04-04T00:47:16.817Z,7.40
2019-04-04T00:49:47.338Z,7.50
2019-04-04T00:52:17.439Z,7.50
2019-04-04T00:54:47.600Z,7.50
2019-04-04T00:57:18.837Z,7.40
2019-04-04T00:59:49.514Z,7.50
2019-04-04T01:02:19.661Z,7.40
2019-04-04T01:04:49.787Z,7.50
2019-04-04T01:07:20.202Z,7.50
2019-04-04T01:09:50.390Z,7.50
2019-04-04T01:12:21.623Z,7.50
2019-04-04T01:14:52.612Z,7.60
2019-04-04T01:17:22.732Z,7.60
2019-04-04T01:19:52.947Z,7.70
2019-04-04T01:22:25.127Z,7.80
2019-04-04T01:24:54.887Z,7.90
2019-04-04T01:27:25.193Z,8.00
2019-04-04T01:29:55.334Z,8.10
2019-04-04T01:32:27.535Z,8.10
2019-04-04T01:34:58.051Z,8.00
2019-04-04T01:37:28.289Z,7.90
2019-04-04T01:39:59.942Z,7.90
2019-04-04T01:42:30.634Z,7.90
2019-04-04T01:45:00.854Z,7.80
2019-04-04T01:47:32.184Z,8.80
2019-04-04T01:50:02.755Z,7.80
2019-04-04T01:52:32.878Z,7.80
2019-04-04T01:55:04.037Z,7.70
2019-04-04T01:57:34.450Z,7.60
2019-04-04T02:00:05.290Z,7.60
2019-04-04T02:02:36.867Z,7.50
2019-04-04T02:05:07.041Z,7.50
2019-04-04T02:07:37.282Z,7.60
2019-04-04T02:10:07.693Z,7.60
2019-04-04T02:12:39.192Z,7.60
2019-04-04T02:15:09.591Z,7.70
2019-04-04T02:17:39.782Z,7.70
2019-04-04T02:20:11.014Z,7.80
2019-04-04T02:22:41.460Z,7.90
2019-04-04T02:25:12.006Z,8.00
2019-04-04T02:27:44.121Z,8.00
2019-04-04T02:30:16.037Z,8.00
2019-04-04T02:32:46.730Z,8.00
2019-04-04T02:35:17.167Z,8.10
2019-04-04T02:37:48.165Z,8.10
2019-04-04T02:40:18.233Z,8.10
2019-04-04T02:42:49.191Z,8.10
2019-04-04T02:45:19.423Z,8.20
2019-04-04T02:47:51.465Z,9.10
2019-04-04T02:50:22.110Z,8.10
2019-04-04T02:52:52.287Z,8.10
2019-04-04T02:55:23.326Z,8.00
2019-04-04T02:57:53.652Z,7.90
2019-04-04T03:00:26.185Z,7.90
2019-04-04T03:02:55.880Z,7.90
2019-04-04T03:05:26.077Z,7.90
2019-04-04T03:07:56.508Z,7.90
2019-04-04T03:10:26.599Z,7.90
2019-04-04T03:12:58.635Z,7.80
2019-04-04T03:15:29.004Z,7.80
2019-04-04T03:17:59.191Z,7.60
2019-04-04T03:20:29.444Z,7.60
2019-04-04T03:23:00.510Z,7.50
2019-04-04T03:25:31.634Z,7.50
2019-04-04T03:28:02.012Z,7.50
2019-04-04T03:30:32.201Z,7.40
2019-04-04T03:33:02.613Z,7.60
2019-04-04T03:35:33.135Z,7.40
2019-04-04T03:38:03.266Z,7.60
2019-04-04T03:40:33.498Z,7.50
2019-04-04T03:43:03.907Z,7.60
2019-04-04T03:45:34.569Z,7.50
2019-04-04T03:48:04.676Z,7.50
2019-04-04T03:50:36.408Z,7.50
2019-04-04T03:53:06.876Z,8.30
2019-04-04T03:55:36.967Z,7.50
2019-04-04T03:58:07.619Z,7.50
2019-04-04T04:00:40.334Z,6.60
2019-04-04T04:03:09.685Z,7.50
2019-04-04T04:05:40.839Z,7.50
2019-04-04T04:08:11.335Z,7.40
2019-04-04T04:10:41.552Z,7.40
2019-04-04T04:13:16.186Z,7.30
2019-04-04T04:15:43.690Z,7.00
2019-04-04T04:18:13.893Z,7.00
2019-04-04T04:20:46.808Z,6.90
2019-04-04T04:25:48.137Z,7.00
2019-04-04T04:28:20.169Z,7.00
2019-04-04T04:33:19.928Z,9.80
2019-04-04T04:35:50.109Z,6.70
2019-04-04T04:38:25.197Z,6.80
2019-04-04T04:43:23.343Z,6.70
2019-04-04T04:45:53.588Z,6.70
2019-04-04T04:50:55.858Z,6.60
2019-04-04T04:53:26.107Z,6.50
2019-04-04T04:55:59.606Z,6.30
2019-04-04T04:58:31.982Z,6.40
2019-04-04T05:01:02.495Z,6.40
2019-04-04T05:03:32.694Z,6.30
2019-04-04T05:06:03.463Z,6.30
2019-04-04T05:08:36.321Z,6.20
2019-04-04T05:11:06.705Z,6.20
2019-04-04T05:13:37.045Z,6.10
2019-04-04T05:16:09.082Z,6.30
2019-04-04T05:18:39.293Z,6.10
2019-04-04T05:21:09.778Z,6.10
2019-04-04T05:23:40.103Z,6.00
2019-04-04T05:26:10.776Z,6.30
2019-04-04T05:28:42.653Z,6.10
2019-04-04T05:33:42.720Z,6.00
2019-04-04T05:36:13.042Z,5.90
2019-04-04T05:38:46.961Z,5.80
2019-04-04T05:41:16.657Z,5.80
2019-04-04T05:46:16.771Z,5.70
2019-04-04T05:48:48.262Z,5.70
2019-04-04T05:51:19.493Z,5.60
2019-04-04T05:53:50.330Z,5.40
2019-04-04T05:56:20.589Z,5.60
2019-04-04T05:58:53.141Z,5.60
2019-04-04T06:03:52.657Z,5.60
2019-04-04T06:06:22.799Z,5.60
2019-04-04T06:08:54.305Z,5.60
2019-04-04T06:11:25.926Z,5.90
2019-04-04T06:13:56.993Z,5.40
2019-04-04T06:18:57.451Z,5.20
2019-04-04T06:21:27.882Z,5.00
2019-04-04T06:23:58.554Z,7.80
2019-04-04T06:26:28.701Z,4.90
2019-04-04T06:28:58.963Z,4.80
2019-04-04T06:31:30.915Z,4.80
2019-04-04T06:34:01.195Z,4.80
2019-04-04T06:36:31.729Z,4.80
2019-04-04T06:41:32.826Z,4.80
2019-04-04T06:44:03.067Z,4.90
2019-04-04T06:49:04.386Z,2.20
2019-04-04T06:51:36.607Z,4.90
2019-04-04T06:54:06.679Z,4.80
2019-04-04T06:56:41.278Z,4.60
2019-04-04T06:59:12.495Z,4.60
2019-04-04T07:01:42.887Z,4.60
2019-04-04T07:04:13.430Z,4.70
2019-04-04T07:06:43.861Z,4.80
2019-04-04T07:09:14.169Z,4.90
2019-04-04T07:11:44.307Z,4.90
2019-04-04T07:14:16.026Z,5.00
2019-04-04T07:16:46.402Z,5.10
2019-04-04T07:19:17.633Z,5.20
2019-04-04T07:21:49.158Z,5.30
2019-04-04T07:24:19.690Z,5.30
2019-04-04T07:26:50.095Z,5.40
2019-04-04T07:29:20.467Z,5.40
2019-04-04T07:31:50.673Z,5.50
2019-04-04T07:34:23.011Z,5.50
2019-04-04T07:36:53.147Z,5.50
2019-04-04T07:39:23.395Z,5.50
2019-04-04T07:41:53.489Z,5.50
2019-04-04T07:44:23.991Z,5.50
2019-04-04T07:46:54.085Z,5.50
2019-04-04T07:49:24.371Z,5.50
2019-04-04T07:51:54.456Z,5.40
2019-04-04T07:54:25.407Z,5.40
2019-04-04T07:56:55.940Z,5.40
2019-04-04T07:59:26.040Z,5.50
2019-04-04T08:01:57.203Z,5.70
2019-04-04T08:04:27.444Z,5.70
2019-04-04T08:06:58.608Z,8.40
2019-04-04T08:09:28.987Z,5.60
2019-04-04T08:11:59.239Z,5.70
2019-04-04T08:14:29.563Z,5.80
2019-04-04T08:16:59.779Z,5.80
2019-04-04T08:19:29.951Z,6.00
2019-04-04T08:22:00.138Z,6.20
2019-04-04T08:24:30.620Z,6.20
2019-04-04T08:27:00.797Z,6.20
2019-04-04T08:29:30.992Z,6.20
2019-04-04T08:32:01.155Z,6.20
2019-04-04T08:34:31.508Z,6.20
2019-04-04T08:37:01.801Z,7.20
2019-04-04T08:39:31.944Z,7.10
2019-04-04T08:42:03.167Z,6.10
2019-04-04T08:44:33.510Z,6.10
2019-04-04T08:47:05.682Z,6.20
2019-04-04T08:49:35.726Z,6.20
2019-04-04T08:52:16.156Z,6.10
2019-04-04T08:54:38.695Z,6.10
2019-04-04T08:57:08.862Z,6.10
2019-04-04T08:59:39.225Z,6.10
2019-04-04T09:04:39.547Z,6.20
2019-04-04T09:07:09.821Z,6.20
2019-04-04T09:09:40.161Z,6.20
2019-04-04T09:12:11.280Z,6.30
2019-04-04T09:14:42.374Z,6.30
2019-04-04T09:17:13.531Z,6.40
2019-04-04T09:19:43.713Z,6.50
2019-04-04T09:22:15.320Z,6.50
2019-04-04T09:24:45.560Z,7.20
2019-04-04T09:27:15.635Z,6.50
2019-04-04T09:29:45.980Z,6.50
2019-04-04T09:34:48.078Z,6.40
2019-04-04T09:37:20.040Z,6.40
2019-04-04T09:39:50.249Z,6.30
2019-04-04T09:42:20.641Z,6.20
2019-04-04T09:44:51.078Z,6.20
2019-04-04T09:47:22.063Z,5.80
2019-04-04T09:49:55.602Z,5.70
2019-04-04T09:52:29.089Z,5.70
2019-04-04T09:55:01.099Z,5.70
2019-04-04T09:57:31.458Z,5.90
2019-04-04T10:00:01.650Z,5.90
2019-04-04T10:02:32.410Z,6.00
2019-04-04T10:05:05.834Z,6.20
2019-04-04T10:07:35.224Z,6.30
2019-04-04T10:10:06.580Z,6.40
2019-04-04T10:12:37.611Z,6.40
2019-04-04T10:15:08.407Z,6.30
2019-04-04T10:17:38.539Z,6.30
2019-04-04T10:20:09.086Z,6.40
2019-04-04T10:22:44.433Z,6.40
2019-04-04T10:27:46.091Z,6.30
2019-04-04T10:30:16.562Z,6.40
2019-04-04T10:32:47.091Z,6.40
2019-04-04T10:35:17.588Z,6.40
2019-04-04T10:37:48.185Z,6.40
2019-04-04T10:40:18.576Z,6.40
2019-04-04T10:42:49.454Z,6.40
2019-04-04T10:45:21.202Z,6.40
2019-04-04T10:47:53.579Z,6.30
2019-04-04T10:50:23.982Z,6.20
2019-04-04T10:52:55.575Z,6.20
2019-04-04T10:55:25.813Z,6.10
2019-04-04T10:57:56.008Z,3.70
2019-04-04T11:00:26.505Z,6.10
2019-04-04T11:02:57.687Z,6.10
2019-04-04T11:05:28.318Z,5.90
2019-04-04T11:07:58.619Z,5.80
2019-04-04T11:10:29.808Z,5.60
2019-04-04T11:13:02.915Z,5.70
2019-04-04T11:15:33.314Z,5.80
2019-04-04T11:18:03.588Z,6.30
2019-04-04T11:20:33.746Z,5.90
2019-04-04T11:23:04.167Z,5.90
2019-04-04T11:25:34.531Z,6.00
2019-04-04T11:28:05.860Z,6.10
2019-04-04T11:30:37.708Z,6.20
2019-04-04T11:33:08.226Z,6.20
2019-04-04T11:35:40.515Z,6.30
2019-04-04T11:40:40.840Z,6.40
2019-04-04T11:43:11.273Z,6.60
2019-04-04T11:45:41.630Z,6.60
2019-04-04T11:48:12.592Z,6.80
2019-04-04T11:50:43.140Z,7.10
2019-04-04T11:53:13.370Z,7.00
2019-04-04T11:55:43.593Z,7.30
2019-04-04T11:58:13.836Z,8.00
2019-04-04T12:00:46.211Z,7.50
2019-04-04T12:03:16.965Z,7.90
2019-04-04T12:05:47.223Z,7.40
2019-04-04T12:08:17.283Z,7.30
2019-04-04T12:10:47.631Z,7.60
2019-04-04T12:13:18.375Z,7.60
2019-04-04T12:15:48.551Z,7.60
2019-04-04T12:18:18.683Z,7.60
2019-04-04T12:20:49.553Z,7.60
2019-04-04T12:23:19.775Z,7.60
2019-04-04T12:25:50.254Z,7.60
2019-04-04T12:28:20.296Z,7.50
2019-04-04T12:30:51.755Z,7.60
2019-04-04T12:35:52.518Z,7.40
2019-04-04T12:38:23.197Z,7.40
2019-04-04T12:40:54.375Z,7.40
2019-04-04T12:43:24.906Z,7.30
2019-04-04T12:45:55.396Z,7.30
2019-04-04T12:48:25.762Z,7.30
2019-04-04T12:50:58.302Z,7.10
2019-04-04T12:53:32.564Z,7.00
2019-04-04T12:56:02.019Z,6.90
2019-04-04T12:58:33.353Z,6.80
2019-04-04T13:01:03.870Z,6.80
2019-04-04T13:03:34.064Z,6.60
2019-04-04T13:06:04.964Z,6.60
2019-04-04T13:08:35.267Z,6.50
2019-04-04T13:11:05.673Z,6.40
2019-04-04T13:13:38.069Z,6.40
2019-04-04T13:16:07.703Z,6.20
2019-04-04T13:18:38.115Z,6.20
2019-04-04T13:21:08.322Z,6.30
2019-04-04T13:23:39.870Z,6.30
2019-04-04T13:28:41.423Z,6.30
2019-04-04T13:31:13.508Z,5.40
2019-04-04T13:33:43.752Z,6.40
2019-04-04T13:36:14.283Z,6.60
2019-04-04T13:38:44.538Z,6.50
2019-04-04T13:41:21.730Z,6.60
2019-04-04T13:43:46.974Z,6.60
2019-04-04T13:46:17.548Z,6.60
2019-04-04T13:48:48.165Z,6.10
2019-04-04T13:51:20.870Z,5.80
2019-04-04T13:53:50.240Z,6.60
2019-04-04T13:56:20.693Z,6.60
2019-04-04T13:58:51.702Z,6.60
2019-04-04T14:01:21.831Z,6.90
2019-04-04T14:03:51.946Z,6.60
2019-04-04T14:06:22.675Z,6.50
2019-04-04T14:08:53.903Z,6.60
2019-04-04T14:11:24.388Z,6.60
2019-04-04T14:13:55.623Z,6.50
2019-04-04T14:16:25.956Z,6.60
2019-04-04T14:18:58.165Z,4.70
2019-04-04T14:21:29.410Z,6.70
2019-04-04T14:24:12.849Z,6.50
2019-04-04T14:26:38.432Z,6.70
2019-04-04T14:29:08.593Z,6.70
2019-04-04T14:31:38.817Z,6.70
2019-04-04T14:34:11.310Z,6.70
2019-04-04T14:36:40.934Z,6.70
2019-04-04T14:39:11.195Z,6.70
2019-04-04T14:41:41.421Z,4.40
2019-04-04T14:44:12.155Z,7.60
2019-04-04T14:46:42.364Z,6.80
2019-04-04T14:49:14.592Z,6.80
2019-04-04T14:51:44.377Z,6.80
2019-04-04T14:54:17.495Z,6.70
2019-04-04T14:56:47.719Z,6.80
2019-04-04T14:59:18.759Z,6.80
2019-04-04T15:04:19.338Z,6.70
2019-04-04T15:09:21.258Z,6.70
2019-04-04T15:11:52.511Z,6.70
2019-04-04T15:14:22.634Z,7.70
2019-04-04T15:16:52.770Z,6.70
2019-04-04T15:19:23.098Z,6.70
2019-04-04T15:21:53.371Z,6.70
2019-04-04T15:24:23.562Z,9.80
2019-04-04T15:26:53.785Z,6.70
2019-04-04T15:29:25.013Z,6.70
2019-04-04T15:31:55.577Z,7.70
2019-04-04T15:36:55.459Z,4.40
2019-04-04T15:39:25.664Z,6.60
2019-04-04T15:41:59.247Z,6.60
2019-04-04T15:44:30.365Z,6.60
2019-04-04T15:47:02.255Z,6.70
2019-04-04T15:49:32.403Z,6.80
2019-04-04T15:52:02.786Z,6.30
2019-04-04T15:54:33.078Z,6.70
2019-04-04T15:59:33.089Z,6.70
2019-04-04T16:04:33.304Z,6.70
2019-04-04T16:07:05.170Z,6.90
2019-04-04T16:09:35.891Z,6.70
2019-04-04T16:12:06.300Z,6.70
2019-04-04T16:14:36.547Z,6.70
2019-04-04T16:17:07.643Z,6.70
2019-04-04T16:19:38.021Z,6.70
2019-04-04T16:22:08.328Z,6.70
2019-04-04T16:24:40.947Z,6.70
2019-04-04T16:27:11.454Z,6.70
2019-04-04T16:29:44.052Z,6.70
2019-04-04T16:32:15.080Z,6.70
2019-04-04T16:34:46.377Z,6.70
2019-04-04T16:37:16.848Z,6.70
2019-04-04T16:39:48.168Z,6.70
2019-04-04T16:44:49.421Z,7.10
2019-04-04T16:47:19.872Z,6.70
2019-04-04T16:49:50.299Z,6.70
2019-04-04T16:52:20.468Z,6.70
2019-04-04T16:54:53.579Z,6.60
2019-04-04T16:57:22.988Z,6.60
2019-04-04T16:59:53.120Z,6.50
2019-04-04T17:02:24.134Z,6.60
2019-04-04T17:04:54.182Z,6.60
2019-04-04T17:07:24.725Z,6.60
2019-04-04T17:09:57.311Z,6.60
2019-04-04T17:12:27.511Z,6.60
2019-04-04T17:14:59.619Z,6.60
2019-04-04T17:17:29.714Z,6.60
2019-04-04T17:19:59.964Z,6.60
2019-04-04T17:22:30.478Z,6.60
2019-04-04T17:25:04.266Z,6.60
2019-04-04T17:27:37.012Z,6.60
2019-04-04T17:30:08.353Z,6.60
2019-04-04T17:32:39.947Z,6.50
2019-04-04T17:35:10.814Z,8.10
2019-04-04T17:37:41.396Z,6.40
2019-04-04T17:40:13.472Z,6.50
2019-04-04T17:42:45.342Z,6.40
2019-04-04T17:45:16.377Z,6.40
2019-04-04T17:47:47.565Z,6.40
2019-04-04T17:50:19.460Z,6.50
2019-04-04T17:52:51.883Z,6.50
2019-04-04T17:55:23.278Z,6.40
2019-04-04T17:57:55.592Z,6.40
2019-04-04T18:00:26.920Z,6.40
2019-04-04T18:02:59.230Z,11.00
2019-04-04T18:05:29.454Z,6.40
2019-04-04T18:07:59.873Z,6.40
2019-04-04T18:10:30.160Z,6.30
2019-04-04T18:13:00.570Z,6.50
2019-04-04T18:18:00.205Z,6.50
2019-04-04T18:20:30.213Z,6.50
2019-04-04T18:23:00.343Z,6.50
2019-04-04T18:25:30.706Z,6.40
2019-04-04T18:28:01.013Z,6.40
2019-04-04T18:30:31.301Z,6.40
2019-04-04T18:33:03.492Z,6.40
2019-04-04T18:35:33.775Z,6.40
2019-04-04T18:38:04.667Z,6.50
2019-04-04T18:40:35.100Z,6.50
2019-04-04T18:43:06.566Z,6.50
2019-04-04T18:48:07.939Z,6.30
2019-04-04T18:50:40.387Z,6.20
2019-04-04T18:53:10.576Z,5.80
2019-04-04T18:55:41.576Z,6.30
2019-04-04T18:58:11.687Z,5.70
2019-04-04T19:00:43.558Z,6.30
2019-04-04T19:03:13.868Z,6.20
2019-04-04T19:05:44.019Z,6.20
2019-04-04T19:08:14.368Z,6.10
2019-04-04T19:10:45.037Z,6.10
2019-04-04T19:13:17.469Z,6.10
2019-04-04T19:15:48.079Z,6.20
2019-04-04T19:18:18.211Z,6.00
2019-04-04T19:20:49.345Z,6.10
2019-04-04T19:23:19.979Z,6.10
2019-04-04T19:25:50.150Z,6.10
2019-04-04T19:28:20.552Z,6.00
2019-04-04T19:30:51.049Z,6.20
2019-04-04T19:35:51.353Z,6.20
2019-04-04T19:38:21.635Z,6.10
2019-04-04T19:40:52.151Z,6.10
2019-04-04T19:43:22.377Z,6.10
2019-04-04T19:46:00.158Z,6.00
2019-04-04T19:48:31.607Z,6.10
2019-04-04T19:51:01.831Z,6.20
2019-04-04T19:53:31.916Z,6.20
2019-04-04T19:56:03.770Z,6.30
2019-04-04T19:58:35.210Z,6.30
2019-04-04T20:01:07.310Z,6.20
2019-04-04T20:03:37.438Z,6.30
2019-04-04T20:06:08.541Z,6.30
2019-04-04T20:08:41.470Z,6.30
2019-04-04T20:11:12.641Z,6.30
2019-04-04T20:13:42.812Z,6.20
2019-04-04T20:16:12.978Z,6.30
2019-04-04T20:18:44.662Z,6.30
2019-04-04T20:21:16.419Z,4.40
2019-04-04T20:23:47.008Z,6.30
2019-04-04T20:26:17.188Z,6.20
2019-04-04T20:28:47.575Z,6.30
2019-04-04T20:31:17.899Z,6.30
2019-04-04T20:34:00.575Z,6.30
2019-04-04T20:36:19.949Z,6.40
2019-04-04T20:38:50.105Z,6.50
2019-04-04T20:41:20.280Z,6.50
2019-04-04T20:46:21.424Z,6.50
2019-04-04T20:48:51.643Z,6.50
2019-04-04T20:51:23.670Z,6.50
2019-04-04T20:53:54.106Z,8.50
2019-04-04T20:56:24.381Z,6.50
2019-04-04T21:01:24.321Z,6.50
2019-04-04T21:03:55.055Z,6.50
2019-04-04T21:06:25.211Z,6.50
2019-04-04T21:08:55.324Z,6.50
2019-04-04T21:11:26.281Z,6.50
2019-04-04T21:13:56.845Z,6.40
2019-04-04T21:16:27.142Z,7.50
2019-04-04T21:18:57.288Z,6.50
2019-04-04T21:21:27.320Z,6.50
2019-04-04T21:23:58.118Z,6.50
2019-04-04T21:26:28.164Z,6.60
2019-04-04T21:29:00.270Z,6.60
2019-04-04T21:36:29.885Z,6.60
2019-04-04T21:39:01.234Z,6.60
2019-04-04T21:41:33.011Z,6.70
2019-04-04T21:49:05.867Z,7.30
2019-04-04T21:51:36.121Z,6.60
2019-04-04T21:54:06.273Z,6.60
2019-04-04T21:56:36.489Z,6.60
2019-04-04T21:59:06.614Z,6.70
2019-04-04T22:01:36.833Z,6.70
2019-04-04T22:04:06.880Z,6.70
2019-04-04T22:06:37.002Z,6.70
2019-04-04T22:09:11.624Z,6.70
2019-04-04T22:11:41.778Z,6.70
2019-04-04T22:14:21.758Z,6.80
2019-04-04T22:16:43.850Z,6.70
2019-04-04T22:19:14.023Z,6.80
2019-04-04T22:21:44.224Z,6.70
2019-04-04T22:24:14.371Z,6.70
2019-04-04T22:26:44.590Z,6.70
2019-04-04T22:29:14.710Z,6.60
2019-04-04T22:31:45.008Z,6.50
2019-04-04T22:34:15.310Z,6.50
2019-04-04T22:36:45.574Z,6.50
2019-04-04T22:39:15.766Z,6.50
2019-04-04T22:41:45.870Z,6.50
2019-04-04T22:44:15.948Z,6.80
2019-04-04T22:46:48.487Z,6.60
2019-04-04T22:49:19.155Z,6.60
2019-04-04T22:51:49.332Z,6.50
2019-04-04T22:54:19.400Z,6.50
2019-04-04T22:56:49.913Z,6.50
2019-04-04T22:59:20.314Z,6.50
2019-04-04T23:01:50.442Z,6.50
2019-04-04T23:04:20.863Z,6.60
2019-04-04T23:06:50.959Z,6.50
2019-04-04T23:09:21.086Z,6.60
2019-04-04T23:11:51.298Z,6.60
2019-04-04T23:14:21.770Z,6.60
2019-04-04T23:16:51.840Z,6.50
2019-04-04T23:19:21.934Z,6.50
2019-04-04T23:21:52.114Z,6.50
2019-04-04T23:26:51.984Z,6.50
2019-04-04T23:29:22.055Z,6.50
2019-04-04T23:31:52.295Z,6.50
2019-04-04T23:34:23.967Z,6.50
2019-04-04T23:36:54.216Z,6.30
2019-04-04T23:39:24.304Z,6.10
2019-04-04T23:41:54.333Z,6.10
2019-04-04T23:44:24.679Z,6.10
2019-04-04T23:46:54.774Z,6.90
2019-04-04T23:49:24.882Z,6.00
2019-04-04T23:51:54.908Z,5.90
2019-04-04T23:54:26.019Z,5.90
2019-04-04T23:56:56.190Z,5.80
2019-04-04T23:59:26.687Z,5.80
